Main page
METAR-TAF:

METAR-TAF

Airports :

Tahiti, French Polynesia

Fa'a'ā International Airport

latitude: 17-33S, longitude: 149-37W, elevation: 2 m

Current weather observation

The report was made 24 minutes ago, at 11:30 UTC
Wind 2 kt from variable directions
Temperature 24°C
Humidity 89%
Pressure 1011 hPa
Visibility 10 km or more
Few clouds at a height of 2000 ft
Broken clouds at a height of 6000 ft

METAR: NTAA 201130Z VRB02KT 9999 FEW020 BKN060 24/22 Q1011 NOSIG

Time: 01:54 (11:54 UTC)

Forecast

The report was made 54 minutes ago, at 11:00 UTC
Forecast valid from 20 at 12 UTC to 21 at 18 UTC
Wind 3 kt from variable directions
Visibility 10 km or more
Few clouds at a height of 2000 ft
Broken clouds at a height of 5000 ft
Probability 30% :
Temporary
from 20 at 12 UTC to 21 at 18 UTC
Visibility: 4000 m
Few clouds at a height of 1300 ft, Towering cumulus.
Broken clouds at a height of 1400 ft
rain showers

TAF: NTAA 201100Z 2012/2118 VRB03KT 9999 FEW020 BKN050 PROB30 TEMPO 2012/2118 4000 SHRA FEW013TCU BKN014

Weather observations and forecasts of more than 4000 airports (METAR and TAF reports).

The available stations are represented by yellow and red dots on the map.

Hover mouse over dot to see the name of the station.

Then click to see weather observations and forecasts.

To change the map : click on the green buttons with a black cross to zoom in, on the green button with a dash to zoom out, or on the green arrows for adjacent maps.


METAR-TAF: